Skip Navigation Links Skip Navigation Links

Current Weather

Rochelle Muni Airport-Koritz Field, Rochelle, Ill.

For information only: do not use for flight planning or navigation.
Latest weather
Observation time Friday, July 10, 2020 8:55 PM CDT
Local time Friday, July 10, 2020 9:06 PM CDT
Flight conditions Visual Meteorological Conditions
Winds
Wind direction Northwest (310°)
Wind speed 5 mph
Visibility 10 mi.
Sky condition
Ceiling unlimited
Sky clear
Temperature 72°F
Dewpoint 65°F
Altimeter 29.93 in.Hg
Derived measurements
Relative humidity 79%
Density altitude 1896 ft.
Remarks
Fully automated report.
Automated weather observing station with precipitation discriminator.
METAR KRPJ 110155Z AUTO 31004KT 10SM CLR 22/18 A2993 RMK AO2 T02220183

Settings

Location code

InnerDrive.Weather 4.0.6770.0 Release CLR 4.0.30319.42000
Copyright ©2018 Inner Drive Technology. All rights reserved. Portions Copyright ©1986-2018 David Braverman.

Find weather

Site navigation


Skip Navigation Links

Place info

Page info

PayPal - The safer, easier way to pay online!

Return home.

Copyright ©2020 Inner Drive Technology. Purveyors of fine, hand-crafted computer software. Page printed 2020-07-11T02:06:24 UTC.